sensor_id;sensor_type;location;lat;lon;timestamp;P1;durP1;ratioP1;P2;durP2;ratioP2
66380;SDS011;53177;52.648;1.214;2022-09-09T00:01:08;10.85;;;2.80;;
66380;SDS011;53177;52.648;1.214;2022-09-09T00:06:49;13.30;;;3.00;;
66380;SDS011;53177;52.648;1.214;2022-09-09T00:09:28;13.80;;;3.47;;
66380;SDS011;53177;52.648;1.214;2022-09-09T00:12:00;12.73;;;3.40;;
66380;SDS011;53177;52.648;1.214;2022-09-09T00:14:51;10.98;;;3.50;;
66380;SDS011;53177;52.648;1.214;2022-09-09T00:20:24;12.33;;;3.70;;
66380;SDS011;53177;52.648;1.214;2022-09-09T00:23:14;15.07;;;3.90;;
66380;SDS011;53177;52.648;1.214;2022-09-09T00:25:51;15.60;;;4.00;;
66380;SDS011;53177;52.648;1.214;2022-09-09T00:28:25;17.30;;;4.22;;
66380;SDS011;53177;52.648;1.214;2022-09-09T00:30:52;14.57;;;4.07;;
66380;SDS011;53177;52.648;1.214;2022-09-09T00:33:22;10.07;;;3.40;;
66380;SDS011;53177;52.648;1.214;2022-09-09T00:35:51;13.98;;;4.20;;
66380;SDS011;53177;52.648;1.214;2022-09-09T00:38:23;11.00;;;3.80;;
66380;SDS011;53177;52.648;1.214;2022-09-09T00:40:53;14.38;;;4.60;;
66380;SDS011;53177;52.648;1.214;2022-09-09T00:43:28;13.68;;;3.95;;
66380;SDS011;53177;52.648;1.214;2022-09-09T00:51:59;12.25;;;4.28;;
66380;SDS011;53177;52.648;1.214;2022-09-09T00:57:31;9.93;;;3.78;;
66380;SDS011;53177;52.648;1.214;2022-09-09T01:06:04;16.23;;;4.30;;
66380;SDS011;53177;52.648;1.214;2022-09-09T01:12:01;20.13;;;4.70;;
66380;SDS011;53177;52.648;1.214;2022-09-09T01:17:05;13.70;;;4.10;;
66380;SDS011;53177;52.648;1.214;2022-09-09T01:25:11;15.55;;;4.00;;
66380;SDS011;53177;52.648;1.214;2022-09-09T01:27:44;11.50;;;4.40;;
66380;SDS011;53177;52.648;1.214;2022-09-09T01:30:14;18.40;;;4.93;;
66380;SDS011;53177;52.648;1.214;2022-09-09T01:32:43;15.07;;;4.45;;
66380;SDS011;53177;52.648;1.214;2022-09-09T01:35:29;16.92;;;4.63;;
66380;SDS011;53177;52.648;1.214;2022-09-09T01:37:56;16.83;;;4.63;;
66380;SDS011;53177;52.648;1.214;2022-09-09T01:40:23;17.47;;;5.10;;
66380;SDS011;53177;52.648;1.214;2022-09-09T01:42:49;11.32;;;4.45;;
66380;SDS011;53177;52.648;1.214;2022-09-09T01:45:16;15.43;;;4.30;;
66380;SDS011;53177;52.648;1.214;2022-09-09T01:47:41;15.43;;;4.30;;
66380;SDS011;53177;52.648;1.214;2022-09-09T01:50:08;11.65;;;3.80;;
66380;SDS011;53177;52.648;1.214;2022-09-09T01:52:37;16.35;;;4.47;;
66380;SDS011;53177;52.648;1.214;2022-09-09T01:55:03;13.77;;;4.20;;
66380;SDS011;53177;52.648;1.214;2022-09-09T01:57:31;12.88;;;4.78;;
66380;SDS011;53177;52.648;1.214;2022-09-09T02:00:18;14.65;;;4.40;;
66380;SDS011;53177;52.648;1.214;2022-09-09T02:05:38;11.48;;;4.03;;
66380;SDS011;53177;52.648;1.214;2022-09-09T02:08:09;10.70;;;3.57;;
66380;SDS011;53177;52.648;1.214;2022-09-09T02:10:49;13.20;;;3.95;;
66380;SDS011;53177;52.648;1.214;2022-09-09T02:13:22;11.93;;;3.40;;
66380;SDS011;53177;52.648;1.214;2022-09-09T02:18:32;14.15;;;4.07;;
66380;SDS011;53177;52.648;1.214;2022-09-09T02:21:38;12.05;;;3.50;;
66380;SDS011;53177;52.648;1.214;2022-09-09T02:24:07;14.20;;;4.30;;
66380;SDS011;53177;52.648;1.214;2022-09-09T02:26:35;19.33;;;4.90;;
66380;SDS011;53177;52.648;1.214;2022-09-09T02:29:06;11.43;;;4.18;;
66380;SDS011;53177;52.648;1.214;2022-09-09T02:31:36;11.98;;;4.00;;
66380;SDS011;53177;52.648;1.214;2022-09-09T02:34:03;17.50;;;4.72;;
66380;SDS011;53177;52.648;1.214;2022-09-09T02:36:31;12.90;;;4.35;;
66380;SDS011;53177;52.648;1.214;2022-09-09T02:38:58;14.60;;;4.20;;
66380;SDS011;53177;52.648;1.214;2022-09-09T02:41:31;14.60;;;4.55;;
66380;SDS011;53177;52.648;1.214;2022-09-09T02:43:58;17.02;;;4.78;;
66380;SDS011;53177;52.648;1.214;2022-09-09T02:46:27;17.05;;;5.03;;
66380;SDS011;53177;52.648;1.214;2022-09-09T02:52:14;12.13;;;4.80;;
66380;SDS011;53177;52.648;1.214;2022-09-09T02:54:42;13.65;;;4.63;;
66380;SDS011;53177;52.648;1.214;2022-09-09T02:59:39;16.42;;;5.03;;
66380;SDS011;53177;52.648;1.214;2022-09-09T03:02:05;10.13;;;4.33;;
66380;SDS011;53177;52.648;1.214;2022-09-09T03:04:31;17.88;;;6.15;;
66380;SDS011;53177;52.648;1.214;2022-09-09T03:07:00;17.70;;;4.97;;
66380;SDS011;53177;52.648;1.214;2022-09-09T03:09:25;13.37;;;4.50;;
66380;SDS011;53177;52.648;1.214;2022-09-09T03:11:53;14.98;;;4.78;;
66380;SDS011;53177;52.648;1.214;2022-09-09T03:14:19;15.20;;;4.80;;
66380;SDS011;53177;52.648;1.214;2022-09-09T03:16:47;15.93;;;5.07;;
66380;SDS011;53177;52.648;1.214;2022-09-09T03:19:13;16.15;;;4.78;;
66380;SDS011;53177;52.648;1.214;2022-09-09T03:21:38;16.17;;;5.93;;
66380;SDS011;53177;52.648;1.214;2022-09-09T03:24:04;16.20;;;5.20;;
66380;SDS011;53177;52.648;1.214;2022-09-09T03:26:30;18.75;;;4.93;;
66380;SDS011;53177;52.648;1.214;2022-09-09T03:28:56;15.83;;;5.70;;
66380;SDS011;53177;52.648;1.214;2022-09-09T03:31:22;15.45;;;5.35;;
66380;SDS011;53177;52.648;1.214;2022-09-09T03:33:47;14.00;;;4.83;;
66380;SDS011;53177;52.648;1.214;2022-09-09T03:36:13;20.00;;;5.80;;
66380;SDS011;53177;52.648;1.214;2022-09-09T03:38:39;18.02;;;5.72;;
66380;SDS011;53177;52.648;1.214;2022-09-09T03:41:05;15.30;;;5.63;;
66380;SDS011;53177;52.648;1.214;2022-09-09T03:43:31;14.52;;;5.07;;
66380;SDS011;53177;52.648;1.214;2022-09-09T03:45:56;16.47;;;5.00;;
66380;SDS011;53177;52.648;1.214;2022-09-09T03:48:22;15.53;;;5.30;;
66380;SDS011;53177;52.648;1.214;2022-09-09T03:50:49;17.50;;;6.07;;
66380;SDS011;53177;52.648;1.214;2022-09-09T03:53:17;16.45;;;5.30;;
66380;SDS011;53177;52.648;1.214;2022-09-09T03:55:47;15.35;;;5.07;;
66380;SDS011;53177;52.648;1.214;2022-09-09T03:58:15;15.82;;;6.28;;
66380;SDS011;53177;52.648;1.214;2022-09-09T04:00:43;17.17;;;6.23;;
66380;SDS011;53177;52.648;1.214;2022-09-09T04:03:10;16.17;;;5.88;;
66380;SDS011;53177;52.648;1.214;2022-09-09T04:05:36;13.63;;;6.10;;
66380;SDS011;53177;52.648;1.214;2022-09-09T04:08:07;16.75;;;6.85;;
66380;SDS011;53177;52.648;1.214;2022-09-09T04:10:34;18.38;;;6.45;;
66380;SDS011;53177;52.648;1.214;2022-09-09T04:13:02;19.77;;;6.33;;
66380;SDS011;53177;52.648;1.214;2022-09-09T04:15:28;18.10;;;6.20;;
66380;SDS011;53177;52.648;1.214;2022-09-09T04:17:54;16.87;;;6.50;;
66380;SDS011;53177;52.648;1.214;2022-09-09T04:20:19;17.83;;;6.70;;
66380;SDS011;53177;52.648;1.214;2022-09-09T04:22:47;14.98;;;6.70;;
66380;SDS011;53177;52.648;1.214;2022-09-09T04:25:12;20.57;;;6.30;;
66380;SDS011;53177;52.648;1.214;2022-09-09T04:27:37;17.57;;;5.40;;
66380;SDS011;53177;52.648;1.214;2022-09-09T04:30:04;18.53;;;5.93;;
66380;SDS011;53177;52.648;1.214;2022-09-09T04:32:32;18.33;;;6.32;;
66380;SDS011;53177;52.648;1.214;2022-09-09T04:34:57;19.02;;;6.20;;
66380;SDS011;53177;52.648;1.214;2022-09-09T04:37:23;20.23;;;6.13;;
66380;SDS011;53177;52.648;1.214;2022-09-09T04:39:49;17.00;;;5.82;;
66380;SDS011;53177;52.648;1.214;2022-09-09T04:42:15;20.17;;;5.70;;
66380;SDS011;53177;52.648;1.214;2022-09-09T04:44:42;18.05;;;5.90;;
66380;SDS011;53177;52.648;1.214;2022-09-09T04:47:08;18.73;;;5.97;;
66380;SDS011;53177;52.648;1.214;2022-09-09T04:49:34;19.93;;;5.67;;
66380;SDS011;53177;52.648;1.214;2022-09-09T04:52:01;14.23;;;5.63;;
66380;SDS011;53177;52.648;1.214;2022-09-09T04:54:29;15.52;;;5.13;;
66380;SDS011;53177;52.648;1.214;2022-09-09T04:56:55;17.60;;;5.53;;
66380;SDS011;53177;52.648;1.214;2022-09-09T04:59:20;19.03;;;5.40;;
66380;SDS011;53177;52.648;1.214;2022-09-09T05:01:46;20.58;;;5.43;;
66380;SDS011;53177;52.648;1.214;2022-09-09T05:04:12;14.38;;;5.32;;
66380;SDS011;53177;52.648;1.214;2022-09-09T05:06:40;13.70;;;5.10;;
66380;SDS011;53177;52.648;1.214;2022-09-09T05:09:05;17.43;;;5.60;;
66380;SDS011;53177;52.648;1.214;2022-09-09T05:11:32;15.77;;;5.80;;
66380;SDS011;53177;52.648;1.214;2022-09-09T05:14:03;15.88;;;5.93;;
66380;SDS011;53177;52.648;1.214;2022-09-09T05:16:28;19.20;;;6.30;;
66380;SDS011;53177;52.648;1.214;2022-09-09T05:18:55;16.07;;;5.90;;
66380;SDS011;53177;52.648;1.214;2022-09-09T05:21:21;17.27;;;6.53;;
66380;SDS011;53177;52.648;1.214;2022-09-09T05:23:48;18.53;;;6.67;;
66380;SDS011;53177;52.648;1.214;2022-09-09T05:26:15;14.52;;;6.90;;
66380;SDS011;53177;52.648;1.214;2022-09-09T05:28:42;16.90;;;7.28;;
66380;SDS011;53177;52.648;1.214;2022-09-09T05:31:08;16.03;;;7.00;;
66380;SDS011;53177;52.648;1.214;2022-09-09T05:33:36;17.52;;;7.20;;
66380;SDS011;53177;52.648;1.214;2022-09-09T05:36:05;16.75;;;7.25;;
66380;SDS011;53177;52.648;1.214;2022-09-09T05:38:36;20.00;;;7.38;;
66380;SDS011;53177;52.648;1.214;2022-09-09T05:41:03;18.10;;;7.10;;
66380;SDS011;53177;52.648;1.214;2022-09-09T05:43:28;21.27;;;6.78;;
66380;SDS011;53177;52.648;1.214;2022-09-09T05:46:01;17.95;;;6.57;;
66380;SDS011;53177;52.648;1.214;2022-09-09T05:48:35;17.75;;;7.10;;
66380;SDS011;53177;52.648;1.214;2022-09-09T05:51:06;15.40;;;6.63;;
66380;SDS011;53177;52.648;1.214;2022-09-09T05:53:34;18.90;;;7.70;;
66380;SDS011;53177;52.648;1.214;2022-09-09T05:56:03;16.58;;;6.90;;
66380;SDS011;53177;52.648;1.214;2022-09-09T05:58:34;15.20;;;6.85;;
66380;SDS011;53177;52.648;1.214;2022-09-09T06:01:03;17.95;;;6.68;;
66380;SDS011;53177;52.648;1.214;2022-09-09T06:03:31;14.70;;;6.20;;
66380;SDS011;53177;52.648;1.214;2022-09-09T06:05:58;16.35;;;6.47;;
66380;SDS011;53177;52.648;1.214;2022-09-09T06:08:25;12.00;;;5.85;;
66380;SDS011;53177;52.648;1.214;2022-09-09T06:10:50;17.23;;;6.03;;
66380;SDS011;53177;52.648;1.214;2022-09-09T06:13:17;16.15;;;6.50;;
66380;SDS011;53177;52.648;1.214;2022-09-09T06:15:52;18.23;;;5.70;;
66380;SDS011;53177;52.648;1.214;2022-09-09T06:18:17;16.73;;;5.93;;
66380;SDS011;53177;52.648;1.214;2022-09-09T06:20:52;15.07;;;5.95;;
66380;SDS011;53177;52.648;1.214;2022-09-09T06:23:29;12.82;;;5.22;;
66380;SDS011;53177;52.648;1.214;2022-09-09T06:26:02;18.50;;;6.13;;
66380;SDS011;53177;52.648;1.214;2022-09-09T06:28:38;15.20;;;5.63;;
66380;SDS011;53177;52.648;1.214;2022-09-09T06:31:05;20.30;;;6.77;;
66380;SDS011;53177;52.648;1.214;2022-09-09T06:33:33;17.98;;;6.05;;
66380;SDS011;53177;52.648;1.214;2022-09-09T06:36:00;17.47;;;5.87;;
66380;SDS011;53177;52.648;1.214;2022-09-09T06:38:26;19.23;;;6.47;;
66380;SDS011;53177;52.648;1.214;2022-09-09T06:40:56;19.38;;;6.53;;
66380;SDS011;53177;52.648;1.214;2022-09-09T06:43:26;18.15;;;5.65;;
66380;SDS011;53177;52.648;1.214;2022-09-09T06:45:55;17.00;;;5.97;;
66380;SDS011;53177;52.648;1.214;2022-09-09T06:48:25;15.47;;;5.90;;
66380;SDS011;53177;52.648;1.214;2022-09-09T06:51:27;20.92;;;5.95;;
66380;SDS011;53177;52.648;1.214;2022-09-09T06:53:46;16.42;;;6.05;;
66380;SDS011;53177;52.648;1.214;2022-09-09T06:58:53;18.02;;;6.40;;
66380;SDS011;53177;52.648;1.214;2022-09-09T07:01:21;16.73;;;5.20;;
66380;SDS011;53177;52.648;1.214;2022-09-09T07:03:49;19.25;;;5.90;;
66380;SDS011;53177;52.648;1.214;2022-09-09T07:06:18;16.58;;;5.47;;
66380;SDS011;53177;52.648;1.214;2022-09-09T07:08:51;15.95;;;5.80;;
66380;SDS011;53177;52.648;1.214;2022-09-09T07:11:29;16.55;;;5.70;;
66380;SDS011;53177;52.648;1.214;2022-09-09T07:13:56;18.97;;;5.27;;
66380;SDS011;53177;52.648;1.214;2022-09-09T07:16:23;18.50;;;6.07;;
66380;SDS011;53177;52.648;1.214;2022-09-09T07:18:49;13.95;;;4.90;;
66380;SDS011;53177;52.648;1.214;2022-09-09T07:21:16;23.98;;;6.05;;
66380;SDS011;53177;52.648;1.214;2022-09-09T07:23:42;20.13;;;5.90;;
66380;SDS011;53177;52.648;1.214;2022-09-09T07:26:09;18.87;;;5.80;;
66380;SDS011;53177;52.648;1.214;2022-09-09T07:28:36;18.60;;;6.05;;
66380;SDS011;53177;52.648;1.214;2022-09-09T07:31:02;15.93;;;5.07;;
66380;SDS011;53177;52.648;1.214;2022-09-09T07:33:28;17.02;;;5.15;;
66380;SDS011;53177;52.648;1.214;2022-09-09T07:36:01;17.93;;;5.67;;
66380;SDS011;53177;52.648;1.214;2022-09-09T07:38:32;16.35;;;4.97;;
66380;SDS011;53177;52.648;1.214;2022-09-09T07:41:05;19.10;;;6.00;;
66380;SDS011;53177;52.648;1.214;2022-09-09T07:43:36;17.17;;;5.38;;
66380;SDS011;53177;52.648;1.214;2022-09-09T07:46:02;19.97;;;5.47;;
66380;SDS011;53177;52.648;1.214;2022-09-09T07:48:28;17.42;;;5.75;;
66380;SDS011;53177;52.648;1.214;2022-09-09T07:51:02;17.20;;;5.53;;
66380;SDS011;53177;52.648;1.214;2022-09-09T07:53:29;18.13;;;6.07;;
66380;SDS011;53177;52.648;1.214;2022-09-09T07:56:01;18.23;;;6.28;;
66380;SDS011;53177;52.648;1.214;2022-09-09T07:58:28;16.25;;;6.00;;
66380;SDS011;53177;52.648;1.214;2022-09-09T08:00:53;19.77;;;7.50;;
66380;SDS011;53177;52.648;1.214;2022-09-09T08:03:19;22.50;;;7.22;;
66380;SDS011;53177;52.648;1.214;2022-09-09T08:05:47;14.83;;;5.80;;
66380;SDS011;53177;52.648;1.214;2022-09-09T08:08:12;21.70;;;7.25;;
66380;SDS011;53177;52.648;1.214;2022-09-09T08:10:41;18.70;;;6.47;;
66380;SDS011;53177;52.648;1.214;2022-09-09T08:13:08;15.48;;;6.70;;
66380;SDS011;53177;52.648;1.214;2022-09-09T08:15:34;21.50;;;6.80;;
66380;SDS011;53177;52.648;1.214;2022-09-09T08:17:59;20.77;;;6.90;;
66380;SDS011;53177;52.648;1.214;2022-09-09T08:20:25;18.73;;;7.50;;
66380;SDS011;53177;52.648;1.214;2022-09-09T08:22:50;18.77;;;7.47;;
66380;SDS011;53177;52.648;1.214;2022-09-09T08:25:15;19.83;;;7.10;;
66380;SDS011;53177;52.648;1.214;2022-09-09T08:27:41;19.92;;;6.68;;
66380;SDS011;53177;52.648;1.214;2022-09-09T08:30:06;23.97;;;7.73;;
66380;SDS011;53177;52.648;1.214;2022-09-09T08:32:32;27.03;;;8.00;;
66380;SDS011;53177;52.648;1.214;2022-09-09T08:34:58;21.17;;;7.15;;
66380;SDS011;53177;52.648;1.214;2022-09-09T08:37:23;15.70;;;5.97;;
66380;SDS011;53177;52.648;1.214;2022-09-09T08:39:48;21.23;;;6.53;;
66380;SDS011;53177;52.648;1.214;2022-09-09T08:42:26;16.10;;;5.63;;
66380;SDS011;53177;52.648;1.214;2022-09-09T08:47:53;19.63;;;6.28;;
66380;SDS011;53177;52.648;1.214;2022-09-09T08:50:27;17.83;;;5.72;;
66380;SDS011;53177;52.648;1.214;2022-09-09T08:55:50;11.95;;;4.75;;
66380;SDS011;53177;52.648;1.214;2022-09-09T09:01:00;16.92;;;6.00;;
66380;SDS011;53177;52.648;1.214;2022-09-09T09:06:30;18.20;;;5.28;;
66380;SDS011;53177;52.648;1.214;2022-09-09T09:11:52;15.13;;;5.25;;
66380;SDS011;53177;52.648;1.214;2022-09-09T09:14:21;19.38;;;5.82;;
66380;SDS011;53177;52.648;1.214;2022-09-09T09:19:23;16.33;;;4.93;;
66380;SDS011;53177;52.648;1.214;2022-09-09T09:21:54;17.98;;;5.85;;
66380;SDS011;53177;52.648;1.214;2022-09-09T09:27:11;17.60;;;5.18;;
66380;SDS011;53177;52.648;1.214;2022-09-09T09:29:38;19.90;;;5.40;;
66380;SDS011;53177;52.648;1.214;2022-09-09T09:32:05;18.20;;;4.57;;
66380;SDS011;53177;52.648;1.214;2022-09-09T09:34:37;14.27;;;4.85;;
66380;SDS011;53177;52.648;1.214;2022-09-09T09:37:07;15.73;;;4.20;;
66380;SDS011;53177;52.648;1.214;2022-09-09T09:39:42;13.27;;;4.40;;
66380;SDS011;53177;52.648;1.214;2022-09-09T09:42:10;15.77;;;4.43;;
66380;SDS011;53177;52.648;1.214;2022-09-09T09:44:39;9.45;;;3.08;;
66380;SDS011;53177;52.648;1.214;2022-09-09T09:47:06;11.63;;;3.58;;
66380;SDS011;53177;52.648;1.214;2022-09-09T09:49:33;12.43;;;3.33;;
66380;SDS011;53177;52.648;1.214;2022-09-09T09:52:12;14.10;;;4.00;;
66380;SDS011;53177;52.648;1.214;2022-09-09T09:54:43;14.68;;;4.82;;
66380;SDS011;53177;52.648;1.214;2022-09-09T09:57:12;10.10;;;3.70;;
66380;SDS011;53177;52.648;1.214;2022-09-09T09:59:40;10.43;;;3.08;;
66380;SDS011;53177;52.648;1.214;2022-09-09T10:02:15;9.67;;;2.63;;
66380;SDS011;53177;52.648;1.214;2022-09-09T10:04:43;8.35;;;2.20;;
66380;SDS011;53177;52.648;1.214;2022-09-09T10:07:28;7.20;;;2.10;;
66380;SDS011;53177;52.648;1.214;2022-09-09T10:09:56;6.40;;;1.80;;
66380;SDS011;53177;52.648;1.214;2022-09-09T10:22:51;7.28;;;2.10;;
66380;SDS011;53177;52.648;1.214;2022-09-09T10:30:29;9.75;;;2.50;;
66380;SDS011;53177;52.648;1.214;2022-09-09T10:33:25;11.40;;;2.92;;
66380;SDS011;53177;52.648;1.214;2022-09-09T10:41:18;10.10;;;3.40;;
66380;SDS011;53177;52.648;1.214;2022-09-09T10:43:53;11.77;;;3.33;;
66380;SDS011;53177;52.648;1.214;2022-09-09T10:52:32;8.80;;;2.07;;
66380;SDS011;53177;52.648;1.214;2022-09-09T10:55:00;12.18;;;2.60;;
66380;SDS011;53177;52.648;1.214;2022-09-09T10:57:29;10.77;;;2.40;;
66380;SDS011;53177;52.648;1.214;2022-09-09T11:00:06;7.72;;;2.20;;
66380;SDS011;53177;52.648;1.214;2022-09-09T11:02:44;12.55;;;2.95;;
66380;SDS011;53177;52.648;1.214;2022-09-09T11:07:55;12.57;;;3.15;;
66380;SDS011;53177;52.648;1.214;2022-09-09T11:10:28;10.70;;;3.53;;
66380;SDS011;53177;52.648;1.214;2022-09-09T11:13:08;8.82;;;3.10;;
66380;SDS011;53177;52.648;1.214;2022-09-09T11:15:49;11.13;;;3.28;;
66380;SDS011;53177;52.648;1.214;2022-09-09T11:18:20;10.03;;;2.83;;
66380;SDS011;53177;52.648;1.214;2022-09-09T11:20:49;10.43;;;3.00;;
66380;SDS011;53177;52.648;1.214;2022-09-09T11:26:24;10.82;;;3.40;;
66380;SDS011;53177;52.648;1.214;2022-09-09T11:34:31;10.63;;;3.58;;
66380;SDS011;53177;52.648;1.214;2022-09-09T11:40:20;12.98;;;4.25;;
66380;SDS011;53177;52.648;1.214;2022-09-09T11:43:13;9.55;;;3.67;;
66380;SDS011;53177;52.648;1.214;2022-09-09T11:45:43;10.73;;;3.83;;
66380;SDS011;53177;52.648;1.214;2022-09-09T11:51:29;11.25;;;4.78;;
66380;SDS011;53177;52.648;1.214;2022-09-09T11:59:06;9.60;;;2.90;;
66380;SDS011;53177;52.648;1.214;2022-09-09T12:01:50;8.68;;;3.30;;
66380;SDS011;53177;52.648;1.214;2022-09-09T12:07:00;11.05;;;4.90;;
66380;SDS011;53177;52.648;1.214;2022-09-09T12:09:30;11.43;;;4.38;;
66380;SDS011;53177;52.648;1.214;2022-09-09T12:17:22;15.33;;;6.53;;
66380;SDS011;53177;52.648;1.214;2022-09-09T12:20:12;17.25;;;5.97;;
66380;SDS011;53177;52.648;1.214;2022-09-09T12:28:49;13.93;;;5.60;;
66380;SDS011;53177;52.648;1.214;2022-09-09T12:34:32;13.88;;;5.82;;
66380;SDS011;53177;52.648;1.214;2022-09-09T12:37:08;14.07;;;5.90;;
66380;SDS011;53177;52.648;1.214;2022-09-09T12:40:04;13.85;;;5.55;;
66380;SDS011;53177;52.648;1.214;2022-09-09T12:42:30;13.10;;;5.90;;
66380;SDS011;53177;52.648;1.214;2022-09-09T12:45:00;15.57;;;6.55;;
66380;SDS011;53177;52.648;1.214;2022-09-09T12:48:14;16.45;;;6.55;;
66380;SDS011;53177;52.648;1.214;2022-09-09T12:50:21;16.60;;;7.53;;
66380;SDS011;53177;52.648;1.214;2022-09-09T12:53:03;16.98;;;8.05;;
66380;SDS011;53177;52.648;1.214;2022-09-09T12:55:35;18.67;;;8.57;;
66380;SDS011;53177;52.648;1.214;2022-09-09T12:58:02;20.83;;;8.68;;
66380;SDS011;53177;52.648;1.214;2022-09-09T13:00:31;20.23;;;9.70;;
66380;SDS011;53177;52.648;1.214;2022-09-09T13:02:58;20.70;;;9.50;;
66380;SDS011;53177;52.648;1.214;2022-09-09T13:05:34;22.52;;;10.13;;
66380;SDS011;53177;52.648;1.214;2022-09-09T13:08:11;22.27;;;9.27;;
66380;SDS011;53177;52.648;1.214;2022-09-09T13:10:52;22.75;;;9.98;;
66380;SDS011;53177;52.648;1.214;2022-09-09T13:13:29;19.17;;;8.60;;
66380;SDS011;53177;52.648;1.214;2022-09-09T13:15:59;19.85;;;8.85;;
66380;SDS011;53177;52.648;1.214;2022-09-09T13:18:27;22.52;;;8.52;;
66380;SDS011;53177;52.648;1.214;2022-09-09T13:20:54;18.20;;;7.82;;
66380;SDS011;53177;52.648;1.214;2022-09-09T13:23:23;15.70;;;6.30;;
66380;SDS011;53177;52.648;1.214;2022-09-09T13:25:53;17.13;;;6.15;;
66380;SDS011;53177;52.648;1.214;2022-09-09T13:28:24;16.00;;;6.68;;
66380;SDS011;53177;52.648;1.214;2022-09-09T13:31:00;16.17;;;6.88;;
66380;SDS011;53177;52.648;1.214;2022-09-09T13:33:35;17.83;;;7.53;;
66380;SDS011;53177;52.648;1.214;2022-09-09T13:36:05;21.00;;;8.37;;
66380;SDS011;53177;52.648;1.214;2022-09-09T13:41:18;18.23;;;8.40;;
66380;SDS011;53177;52.648;1.214;2022-09-09T13:43:46;15.73;;;8.05;;
66380;SDS011;53177;52.648;1.214;2022-09-09T13:49:22;24.27;;;9.20;;
66380;SDS011;53177;52.648;1.214;2022-09-09T13:51:48;22.10;;;9.73;;
66380;SDS011;53177;52.648;1.214;2022-09-09T13:54:27;22.08;;;9.40;;
66380;SDS011;53177;52.648;1.214;2022-09-09T13:56:53;20.57;;;8.77;;
66380;SDS011;53177;52.648;1.214;2022-09-09T13:59:20;22.88;;;9.65;;
66380;SDS011;53177;52.648;1.214;2022-09-09T14:01:46;23.55;;;9.07;;
66380;SDS011;53177;52.648;1.214;2022-09-09T14:04:12;21.75;;;9.18;;
66380;SDS011;53177;52.648;1.214;2022-09-09T14:06:37;21.93;;;8.70;;
66380;SDS011;53177;52.648;1.214;2022-09-09T14:09:05;21.33;;;8.98;;
66380;SDS011;53177;52.648;1.214;2022-09-09T14:11:31;21.37;;;9.30;;
66380;SDS011;53177;52.648;1.214;2022-09-09T14:13:56;19.35;;;8.30;;
66380;SDS011;53177;52.648;1.214;2022-09-09T14:16:22;22.27;;;8.03;;
66380;SDS011;53177;52.648;1.214;2022-09-09T14:18:47;18.63;;;7.90;;
66380;SDS011;53177;52.648;1.214;2022-09-09T14:21:13;23.90;;;9.10;;
66380;SDS011;53177;52.648;1.214;2022-09-09T14:23:39;20.20;;;8.93;;
66380;SDS011;53177;52.648;1.214;2022-09-09T14:26:05;21.92;;;9.38;;
66380;SDS011;53177;52.648;1.214;2022-09-09T14:28:31;18.20;;;9.43;;
66380;SDS011;53177;52.648;1.214;2022-09-09T14:31:01;27.17;;;9.93;;
66380;SDS011;53177;52.648;1.214;2022-09-09T14:33:28;24.00;;;9.95;;
66380;SDS011;53177;52.648;1.214;2022-09-09T14:35:57;27.83;;;10.43;;
66380;SDS011;53177;52.648;1.214;2022-09-09T14:38:34;26.17;;;10.53;;
66380;SDS011;53177;52.648;1.214;2022-09-09T14:41:05;26.52;;;10.50;;
66380;SDS011;53177;52.648;1.214;2022-09-09T14:43:30;28.83;;;11.05;;
66380;SDS011;53177;52.648;1.214;2022-09-09T14:45:57;43.67;;;11.00;;
66380;SDS011;53177;52.648;1.214;2022-09-09T14:48:33;30.60;;;10.90;;
66380;SDS011;53177;52.648;1.214;2022-09-09T14:51:08;28.87;;;11.07;;
66380;SDS011;53177;52.648;1.214;2022-09-09T14:53:35;29.58;;;11.35;;
66380;SDS011;53177;52.648;1.214;2022-09-09T14:56:19;23.92;;;9.65;;
66380;SDS011;53177;52.648;1.214;2022-09-09T14:58:48;17.42;;;7.80;;
66380;SDS011;53177;52.648;1.214;2022-09-09T15:01:15;14.93;;;6.37;;
66380;SDS011;53177;52.648;1.214;2022-09-09T15:03:42;14.88;;;5.25;;
66380;SDS011;53177;52.648;1.214;2022-09-09T15:06:09;13.40;;;4.18;;
66380;SDS011;53177;52.648;1.214;2022-09-09T15:08:37;14.13;;;4.50;;
66380;SDS011;53177;52.648;1.214;2022-09-09T15:11:04;12.32;;;4.70;;
66380;SDS011;53177;52.648;1.214;2022-09-09T15:13:32;13.20;;;4.43;;
66380;SDS011;53177;52.648;1.214;2022-09-09T15:16:04;10.43;;;4.38;;
66380;SDS011;53177;52.648;1.214;2022-09-09T15:18:34;15.55;;;4.47;;
66380;SDS011;53177;52.648;1.214;2022-09-09T15:21:01;11.93;;;4.57;;
66380;SDS011;53177;52.648;1.214;2022-09-09T15:23:31;12.10;;;4.70;;
66380;SDS011;53177;52.648;1.214;2022-09-09T15:25:59;14.37;;;5.63;;
66380;SDS011;53177;52.648;1.214;2022-09-09T15:28:25;12.75;;;5.55;;
66380;SDS011;53177;52.648;1.214;2022-09-09T15:30:51;15.67;;;5.83;;
66380;SDS011;53177;52.648;1.214;2022-09-09T15:33:18;18.33;;;6.45;;
66380;SDS011;53177;52.648;1.214;2022-09-09T15:35:45;15.57;;;6.63;;
66380;SDS011;53177;52.648;1.214;2022-09-09T15:38:10;15.60;;;6.80;;
66380;SDS011;53177;52.648;1.214;2022-09-09T15:40:38;17.08;;;7.00;;
66380;SDS011;53177;52.648;1.214;2022-09-09T15:43:06;17.65;;;6.88;;
66380;SDS011;53177;52.648;1.214;2022-09-09T15:45:32;19.70;;;7.30;;
66380;SDS011;53177;52.648;1.214;2022-09-09T15:48:01;15.18;;;6.70;;
66380;SDS011;53177;52.648;1.214;2022-09-09T15:50:28;13.23;;;5.07;;
66380;SDS011;53177;52.648;1.214;2022-09-09T15:52:57;16.25;;;6.30;;
66380;SDS011;53177;52.648;1.214;2022-09-09T15:55:23;15.97;;;6.10;;
66380;SDS011;53177;52.648;1.214;2022-09-09T15:57:51;12.07;;;5.22;;
66380;SDS011;53177;52.648;1.214;2022-09-09T16:00:20;13.30;;;6.03;;
66380;SDS011;53177;52.648;1.214;2022-09-09T16:02:48;14.13;;;6.03;;
66380;SDS011;53177;52.648;1.214;2022-09-09T16:05:13;18.57;;;6.10;;
66380;SDS011;53177;52.648;1.214;2022-09-09T16:07:39;14.90;;;5.75;;
66380;SDS011;53177;52.648;1.214;2022-09-09T16:10:05;13.67;;;5.37;;
66380;SDS011;53177;52.648;1.214;2022-09-09T16:12:31;15.43;;;5.30;;
66380;SDS011;53177;52.648;1.214;2022-09-09T16:14:56;12.47;;;4.93;;
66380;SDS011;53177;52.648;1.214;2022-09-09T16:17:21;14.00;;;5.10;;
66380;SDS011;53177;52.648;1.214;2022-09-09T16:19:47;13.30;;;5.00;;
66380;SDS011;53177;52.648;1.214;2022-09-09T16:22:12;11.53;;;4.83;;
66380;SDS011;53177;52.648;1.214;2022-09-09T16:24:40;14.23;;;5.38;;
66380;SDS011;53177;52.648;1.214;2022-09-09T16:27:05;11.70;;;4.37;;
66380;SDS011;53177;52.648;1.214;2022-09-09T16:29:31;15.95;;;5.05;;
66380;SDS011;53177;52.648;1.214;2022-09-09T16:31:57;12.70;;;4.67;;
66380;SDS011;53177;52.648;1.214;2022-09-09T16:34:23;10.18;;;4.32;;
66380;SDS011;53177;52.648;1.214;2022-09-09T16:36:50;12.57;;;4.05;;
66380;SDS011;53177;52.648;1.214;2022-09-09T16:39:18;13.90;;;4.47;;
66380;SDS011;53177;52.648;1.214;2022-09-09T16:41:45;14.90;;;4.00;;
66380;SDS011;53177;52.648;1.214;2022-09-09T16:44:13;10.27;;;3.53;;
66380;SDS011;53177;52.648;1.214;2022-09-09T16:46:41;13.05;;;3.83;;
66380;SDS011;53177;52.648;1.214;2022-09-09T16:49:08;12.18;;;3.40;;
66380;SDS011;53177;52.648;1.214;2022-09-09T16:51:37;11.93;;;3.60;;
66380;SDS011;53177;52.648;1.214;2022-09-09T16:54:05;12.30;;;3.60;;
66380;SDS011;53177;52.648;1.214;2022-09-09T16:56:32;9.07;;;3.33;;
66380;SDS011;53177;52.648;1.214;2022-09-09T16:59:02;11.02;;;3.83;;
66380;SDS011;53177;52.648;1.214;2022-09-09T17:01:30;10.45;;;2.92;;
66380;SDS011;53177;52.648;1.214;2022-09-09T17:03:59;7.93;;;2.97;;
66380;SDS011;53177;52.648;1.214;2022-09-09T17:06:26;9.63;;;3.03;;
66380;SDS011;53177;52.648;1.214;2022-09-09T17:08:55;8.45;;;3.15;;